Terminal Aerodrome Forecast
Issued by NWS

Home | Current Version | Previous Version | Graphics & Text | Print | Product List | Glossary On
Versions: 1 2 3 4 5 6 7 8 9 10 11 12 13
990
FTUS43 KTOP 061725
TAFMHK
TAF
KMHK 061725Z 0618/0718 34012KT P6SM SCT200
     FM062300 31003KT P6SM SCT200
     FM071400 02007KT P6SM OVC040=

USA.gov is the U.S. government's official web portal to all federal, state and local government web resources and services.